sensor_id;sensor_type;location;lat;lon;timestamp;temperature;humidity
18729;DHT22;9493;51.884;5.188;2023-07-31T00:01:16;16.70;99.90
18729;DHT22;9493;51.884;5.188;2023-07-31T00:03:43;16.70;99.90
18729;DHT22;9493;51.884;5.188;2023-07-31T00:06:10;16.70;99.90
18729;DHT22;9493;51.884;5.188;2023-07-31T00:08:37;16.70;99.90
18729;DHT22;9493;51.884;5.188;2023-07-31T00:11:05;16.80;99.90
18729;DHT22;9493;51.884;5.188;2023-07-31T00:13:32;16.80;99.90
18729;DHT22;9493;51.884;5.188;2023-07-31T00:15:59;16.80;99.90
18729;DHT22;9493;51.884;5.188;2023-07-31T00:18:26;16.70;99.90
18729;DHT22;9493;51.884;5.188;2023-07-31T00:20:52;16.80;99.90
18729;DHT22;9493;51.884;5.188;2023-07-31T00:23:19;16.80;99.90
18729;DHT22;9493;51.884;5.188;2023-07-31T00:25:46;16.80;99.90
18729;DHT22;9493;51.884;5.188;2023-07-31T00:28:14;16.80;99.90
18729;DHT22;9493;51.884;5.188;2023-07-31T00:30:41;16.80;99.90
18729;DHT22;9493;51.884;5.188;2023-07-31T00:33:08;16.80;99.90
18729;DHT22;9493;51.884;5.188;2023-07-31T00:35:34;16.80;99.90
18729;DHT22;9493;51.884;5.188;2023-07-31T00:38:02;16.80;99.90
18729;DHT22;9493;51.884;5.188;2023-07-31T00:40:29;16.80;99.90
18729;DHT22;9493;51.884;5.188;2023-07-31T00:42:55;16.80;99.90
18729;DHT22;9493;51.884;5.188;2023-07-31T00:45:23;16.80;99.90
18729;DHT22;9493;51.884;5.188;2023-07-31T00:47:52;16.80;99.90
18729;DHT22;9493;51.884;5.188;2023-07-31T00:50:19;16.80;99.90
18729;DHT22;9493;51.884;5.188;2023-07-31T00:52:46;16.80;99.90
18729;DHT22;9493;51.884;5.188;2023-07-31T00:55:13;16.80;99.90
18729;DHT22;9493;51.884;5.188;2023-07-31T00:57:41;16.90;99.90
18729;DHT22;9493;51.884;5.188;2023-07-31T01:00:09;16.90;99.90
18729;DHT22;9493;51.884;5.188;2023-07-31T01:02:38;16.90;99.90
18729;DHT22;9493;51.884;5.188;2023-07-31T01:05:05;16.90;99.90
18729;DHT22;9493;51.884;5.188;2023-07-31T01:07:41;16.90;99.90
18729;DHT22;9493;51.884;5.188;2023-07-31T01:10:15;16.90;99.90
18729;DHT22;9493;51.884;5.188;2023-07-31T01:12:43;16.90;99.90
18729;DHT22;9493;51.884;5.188;2023-07-31T01:15:11;16.90;99.90
18729;DHT22;9493;51.884;5.188;2023-07-31T01:17:41;16.90;99.90
18729;DHT22;9493;51.884;5.188;2023-07-31T01:20:12;16.90;99.90
18729;DHT22;9493;51.884;5.188;2023-07-31T01:23:07;16.90;99.90
18729;DHT22;9493;51.884;5.188;2023-07-31T01:25:56;16.90;99.90
18729;DHT22;9493;51.884;5.188;2023-07-31T01:28:29;16.90;99.90
18729;DHT22;9493;51.884;5.188;2023-07-31T01:31:00;16.90;99.90
18729;DHT22;9493;51.884;5.188;2023-07-31T01:33:29;16.90;99.90
18729;DHT22;9493;51.884;5.188;2023-07-31T01:35:57;16.80;99.90
18729;DHT22;9493;51.884;5.188;2023-07-31T01:38:24;16.80;99.90
18729;DHT22;9493;51.884;5.188;2023-07-31T01:40:52;16.80;99.90
18729;DHT22;9493;51.884;5.188;2023-07-31T01:43:20;16.70;99.90
18729;DHT22;9493;51.884;5.188;2023-07-31T01:45:46;16.70;99.90
18729;DHT22;9493;51.884;5.188;2023-07-31T01:48:13;16.80;99.90
18729;DHT22;9493;51.884;5.188;2023-07-31T01:50:40;16.70;99.90
18729;DHT22;9493;51.884;5.188;2023-07-31T01:53:07;16.80;99.90
18729;DHT22;9493;51.884;5.188;2023-07-31T01:55:34;16.80;99.90
18729;DHT22;9493;51.884;5.188;2023-07-31T01:58:02;16.80;99.90
18729;DHT22;9493;51.884;5.188;2023-07-31T02:00:29;16.90;99.90
18729;DHT22;9493;51.884;5.188;2023-07-31T02:02:56;16.80;99.90
18729;DHT22;9493;51.884;5.188;2023-07-31T02:05:22;16.80;99.90
18729;DHT22;9493;51.884;5.188;2023-07-31T02:07:49;16.90;99.90
18729;DHT22;9493;51.884;5.188;2023-07-31T02:10:16;16.90;99.90
18729;DHT22;9493;51.884;5.188;2023-07-31T02:12:43;16.90;99.90
18729;DHT22;9493;51.884;5.188;2023-07-31T02:15:11;16.90;99.90
18729;DHT22;9493;51.884;5.188;2023-07-31T02:17:38;16.90;99.90
18729;DHT22;9493;51.884;5.188;2023-07-31T02:20:06;17.00;99.90
18729;DHT22;9493;51.884;5.188;2023-07-31T02:22:33;17.00;99.90
18729;DHT22;9493;51.884;5.188;2023-07-31T02:24:59;17.00;99.90
18729;DHT22;9493;51.884;5.188;2023-07-31T02:27:26;17.00;99.90
18729;DHT22;9493;51.884;5.188;2023-07-31T02:29:53;17.00;99.90
18729;DHT22;9493;51.884;5.188;2023-07-31T02:32:22;17.00;99.90
18729;DHT22;9493;51.884;5.188;2023-07-31T02:34:49;17.00;99.90
18729;DHT22;9493;51.884;5.188;2023-07-31T02:37:15;17.00;99.90
18729;DHT22;9493;51.884;5.188;2023-07-31T02:39:43;17.00;99.90
18729;DHT22;9493;51.884;5.188;2023-07-31T02:42:09;16.90;99.90
18729;DHT22;9493;51.884;5.188;2023-07-31T02:44:36;16.90;99.90
18729;DHT22;9493;51.884;5.188;2023-07-31T02:47:03;17.00;99.90
18729;DHT22;9493;51.884;5.188;2023-07-31T02:49:32;16.90;99.90
18729;DHT22;9493;51.884;5.188;2023-07-31T02:51:59;16.90;99.90
18729;DHT22;9493;51.884;5.188;2023-07-31T02:54:25;16.90;99.90
18729;DHT22;9493;51.884;5.188;2023-07-31T02:56:52;16.90;99.90
18729;DHT22;9493;51.884;5.188;2023-07-31T02:59:20;16.90;99.90
18729;DHT22;9493;51.884;5.188;2023-07-31T03:01:47;16.90;99.90
18729;DHT22;9493;51.884;5.188;2023-07-31T03:04:14;16.90;99.90
18729;DHT22;9493;51.884;5.188;2023-07-31T03:06:42;16.90;99.90
18729;DHT22;9493;51.884;5.188;2023-07-31T03:09:09;16.90;99.90
18729;DHT22;9493;51.884;5.188;2023-07-31T03:11:35;16.80;99.90
18729;DHT22;9493;51.884;5.188;2023-07-31T03:14:02;16.90;99.90
18729;DHT22;9493;51.884;5.188;2023-07-31T03:16:29;16.90;99.90
18729;DHT22;9493;51.884;5.188;2023-07-31T03:18:56;16.80;99.90
18729;DHT22;9493;51.884;5.188;2023-07-31T03:21:23;16.90;99.90
18729;DHT22;9493;51.884;5.188;2023-07-31T03:23:51;16.90;99.90
18729;DHT22;9493;51.884;5.188;2023-07-31T03:26:18;16.90;99.90
18729;DHT22;9493;51.884;5.188;2023-07-31T03:28:45;16.90;99.90
18729;DHT22;9493;51.884;5.188;2023-07-31T03:31:12;16.90;99.90
18729;DHT22;9493;51.884;5.188;2023-07-31T03:33:39;16.90;99.90
18729;DHT22;9493;51.884;5.188;2023-07-31T03:36:06;16.90;99.90
18729;DHT22;9493;51.884;5.188;2023-07-31T03:38:33;16.90;99.90
18729;DHT22;9493;51.884;5.188;2023-07-31T03:41:01;16.90;99.90
18729;DHT22;9493;51.884;5.188;2023-07-31T03:43:28;16.90;99.90
18729;DHT22;9493;51.884;5.188;2023-07-31T03:45:55;16.90;99.90
18729;DHT22;9493;51.884;5.188;2023-07-31T03:48:22;16.90;99.90
18729;DHT22;9493;51.884;5.188;2023-07-31T03:50:49;16.90;99.90
18729;DHT22;9493;51.884;5.188;2023-07-31T03:53:15;16.90;99.90
18729;DHT22;9493;51.884;5.188;2023-07-31T03:55:42;16.90;99.90
18729;DHT22;9493;51.884;5.188;2023-07-31T03:58:10;16.80;99.90
18729;DHT22;9493;51.884;5.188;2023-07-31T04:00:37;16.80;99.90
18729;DHT22;9493;51.884;5.188;2023-07-31T04:03:04;16.80;99.90
18729;DHT22;9493;51.884;5.188;2023-07-31T04:05:32;16.80;99.90
18729;DHT22;9493;51.884;5.188;2023-07-31T04:07:59;16.80;99.90
18729;DHT22;9493;51.884;5.188;2023-07-31T04:10:26;16.80;99.90
18729;DHT22;9493;51.884;5.188;2023-07-31T04:12:52;16.80;99.90
18729;DHT22;9493;51.884;5.188;2023-07-31T04:15:21;16.80;99.90
18729;DHT22;9493;51.884;5.188;2023-07-31T04:17:47;16.80;99.90
18729;DHT22;9493;51.884;5.188;2023-07-31T04:20:14;16.70;99.90
18729;DHT22;9493;51.884;5.188;2023-07-31T04:22:41;16.80;99.90
18729;DHT22;9493;51.884;5.188;2023-07-31T04:25:08;16.80;99.90
18729;DHT22;9493;51.884;5.188;2023-07-31T04:27:35;16.80;99.90
18729;DHT22;9493;51.884;5.188;2023-07-31T04:30:02;16.80;99.90
18729;DHT22;9493;51.884;5.188;2023-07-31T04:32:31;16.80;99.90
18729;DHT22;9493;51.884;5.188;2023-07-31T04:34:58;16.80;99.90
18729;DHT22;9493;51.884;5.188;2023-07-31T04:37:24;16.70;99.90
18729;DHT22;9493;51.884;5.188;2023-07-31T04:39:51;16.70;99.90
18729;DHT22;9493;51.884;5.188;2023-07-31T04:42:18;16.80;99.90
18729;DHT22;9493;51.884;5.188;2023-07-31T04:44:45;16.70;99.90
18729;DHT22;9493;51.884;5.188;2023-07-31T04:47:11;16.60;99.90
18729;DHT22;9493;51.884;5.188;2023-07-31T04:49:40;16.60;99.90
18729;DHT22;9493;51.884;5.188;2023-07-31T04:52:06;16.50;99.90
18729;DHT22;9493;51.884;5.188;2023-07-31T04:54:33;16.50;99.90
18729;DHT22;9493;51.884;5.188;2023-07-31T04:57:00;16.40;99.90
18729;DHT22;9493;51.884;5.188;2023-07-31T04:59:27;16.40;99.90
18729;DHT22;9493;51.884;5.188;2023-07-31T05:01:54;16.40;99.90
18729;DHT22;9493;51.884;5.188;2023-07-31T05:04:20;16.30;99.90
18729;DHT22;9493;51.884;5.188;2023-07-31T05:06:48;16.30;99.90
18729;DHT22;9493;51.884;5.188;2023-07-31T05:09:16;16.30;99.90
18729;DHT22;9493;51.884;5.188;2023-07-31T05:11:43;16.20;99.90
18729;DHT22;9493;51.884;5.188;2023-07-31T05:14:10;16.20;99.90
18729;DHT22;9493;51.884;5.188;2023-07-31T05:16:37;16.20;99.90
18729;DHT22;9493;51.884;5.188;2023-07-31T05:19:04;16.20;99.90
18729;DHT22;9493;51.884;5.188;2023-07-31T05:21:30;16.10;99.90
18729;DHT22;9493;51.884;5.188;2023-07-31T05:23:58;16.10;99.90
18729;DHT22;9493;51.884;5.188;2023-07-31T05:26:25;16.10;99.90
18729;DHT22;9493;51.884;5.188;2023-07-31T05:28:52;16.10;99.90
18729;DHT22;9493;51.884;5.188;2023-07-31T05:31:19;16.10;99.90
18729;DHT22;9493;51.884;5.188;2023-07-31T05:33:46;16.10;99.90
18729;DHT22;9493;51.884;5.188;2023-07-31T05:36:13;16.10;99.90
18729;DHT22;9493;51.884;5.188;2023-07-31T05:38:40;16.10;99.90
18729;DHT22;9493;51.884;5.188;2023-07-31T05:41:09;16.10;99.90
18729;DHT22;9493;51.884;5.188;2023-07-31T05:43:35;16.10;99.90
18729;DHT22;9493;51.884;5.188;2023-07-31T05:46:02;16.10;99.90
18729;DHT22;9493;51.884;5.188;2023-07-31T05:48:29;16.10;99.90
18729;DHT22;9493;51.884;5.188;2023-07-31T05:50:56;16.10;99.90
18729;DHT22;9493;51.884;5.188;2023-07-31T05:53:22;16.10;99.90
18729;DHT22;9493;51.884;5.188;2023-07-31T05:55:49;16.10;99.90
18729;DHT22;9493;51.884;5.188;2023-07-31T05:58:17;16.10;99.90
18729;DHT22;9493;51.884;5.188;2023-07-31T06:00:44;16.10;99.90
18729;DHT22;9493;51.884;5.188;2023-07-31T06:03:11;16.10;99.90
18729;DHT22;9493;51.884;5.188;2023-07-31T06:05:38;16.20;99.90
18729;DHT22;9493;51.884;5.188;2023-07-31T06:08:05;16.20;99.90
18729;DHT22;9493;51.884;5.188;2023-07-31T06:10:32;16.20;99.90
18729;DHT22;9493;51.884;5.188;2023-07-31T06:12:58;16.20;99.90
18729;DHT22;9493;51.884;5.188;2023-07-31T06:15:26;16.20;99.90
18729;DHT22;9493;51.884;5.188;2023-07-31T06:17:53;16.30;99.90
18729;DHT22;9493;51.884;5.188;2023-07-31T06:20:20;16.30;99.90
18729;DHT22;9493;51.884;5.188;2023-07-31T06:22:47;16.30;99.90
18729;DHT22;9493;51.884;5.188;2023-07-31T06:25:14;16.70;99.90
18729;DHT22;9493;51.884;5.188;2023-07-31T06:27:41;16.30;99.90
18729;DHT22;9493;51.884;5.188;2023-07-31T06:30:08;16.40;99.90
18729;DHT22;9493;51.884;5.188;2023-07-31T06:32:36;16.40;99.90
18729;DHT22;9493;51.884;5.188;2023-07-31T06:35:03;16.50;99.90
18729;DHT22;9493;51.884;5.188;2023-07-31T06:37:31;16.40;99.90
18729;DHT22;9493;51.884;5.188;2023-07-31T06:39:57;16.40;99.90
18729;DHT22;9493;51.884;5.188;2023-07-31T06:42:24;16.40;99.90
18729;DHT22;9493;51.884;5.188;2023-07-31T06:44:51;16.50;99.90
18729;DHT22;9493;51.884;5.188;2023-07-31T06:47:18;16.50;99.90
18729;DHT22;9493;51.884;5.188;2023-07-31T06:49:46;16.60;99.90
18729;DHT22;9493;51.884;5.188;2023-07-31T06:52:13;16.60;99.90
18729;DHT22;9493;51.884;5.188;2023-07-31T06:54:40;16.60;99.90
18729;DHT22;9493;51.884;5.188;2023-07-31T06:57:07;16.70;99.90
18729;DHT22;9493;51.884;5.188;2023-07-31T06:59:34;16.50;99.90
18729;DHT22;9493;51.884;5.188;2023-07-31T07:02:00;16.70;99.90
18729;DHT22;9493;51.884;5.188;2023-07-31T07:04:27;16.70;99.90
18729;DHT22;9493;51.884;5.188;2023-07-31T07:06:55;16.70;99.90
18729;DHT22;9493;51.884;5.188;2023-07-31T07:09:22;16.80;99.90
18729;DHT22;9493;51.884;5.188;2023-07-31T07:11:49;16.80;99.90
18729;DHT22;9493;51.884;5.188;2023-07-31T07:14:16;16.80;99.90
18729;DHT22;9493;51.884;5.188;2023-07-31T07:16:43;16.90;99.90
18729;DHT22;9493;51.884;5.188;2023-07-31T07:19:09;16.80;99.90
18729;DHT22;9493;51.884;5.188;2023-07-31T07:21:36;16.80;99.90
18729;DHT22;9493;51.884;5.188;2023-07-31T07:24:04;16.90;99.90
18729;DHT22;9493;51.884;5.188;2023-07-31T07:26:31;16.90;99.90
18729;DHT22;9493;51.884;5.188;2023-07-31T07:28:58;16.90;99.90
18729;DHT22;9493;51.884;5.188;2023-07-31T07:31:30;17.00;99.90
18729;DHT22;9493;51.884;5.188;2023-07-31T07:33:57;17.00;99.90
18729;DHT22;9493;51.884;5.188;2023-07-31T07:36:24;17.00;99.90
18729;DHT22;9493;51.884;5.188;2023-07-31T07:38:51;17.10;99.90
18729;DHT22;9493;51.884;5.188;2023-07-31T07:41:19;17.10;99.90
18729;DHT22;9493;51.884;5.188;2023-07-31T07:43:46;17.20;99.90
18729;DHT22;9493;51.884;5.188;2023-07-31T07:46:12;17.20;99.90
18729;DHT22;9493;51.884;5.188;2023-07-31T07:48:39;17.20;99.90
18729;DHT22;9493;51.884;5.188;2023-07-31T07:51:06;17.20;99.90
18729;DHT22;9493;51.884;5.188;2023-07-31T07:53:33;17.10;99.90
18729;DHT22;9493;51.884;5.188;2023-07-31T07:56:00;17.20;99.90
18729;DHT22;9493;51.884;5.188;2023-07-31T07:58:28;17.20;99.90
18729;DHT22;9493;51.884;5.188;2023-07-31T08:00:55;17.20;99.90
18729;DHT22;9493;51.884;5.188;2023-07-31T08:03:22;17.20;99.90
18729;DHT22;9493;51.884;5.188;2023-07-31T08:05:48;17.20;99.90
18729;DHT22;9493;51.884;5.188;2023-07-31T08:08:15;17.30;99.90
18729;DHT22;9493;51.884;5.188;2023-07-31T08:10:43;17.20;99.90
18729;DHT22;9493;51.884;5.188;2023-07-31T08:13:10;17.30;99.90
18729;DHT22;9493;51.884;5.188;2023-07-31T08:15:41;17.20;99.90
18729;DHT22;9493;51.884;5.188;2023-07-31T08:18:09;17.20;99.90
18729;DHT22;9493;51.884;5.188;2023-07-31T08:20:37;17.30;99.90
18729;DHT22;9493;51.884;5.188;2023-07-31T08:23:04;17.20;99.90
18729;DHT22;9493;51.884;5.188;2023-07-31T08:25:30;17.20;99.90
18729;DHT22;9493;51.884;5.188;2023-07-31T08:28:00;17.20;99.90
18729;DHT22;9493;51.884;5.188;2023-07-31T08:30:27;17.20;99.90
18729;DHT22;9493;51.884;5.188;2023-07-31T08:32:56;17.20;99.90
18729;DHT22;9493;51.884;5.188;2023-07-31T08:35:23;17.20;99.90
18729;DHT22;9493;51.884;5.188;2023-07-31T08:37:50;17.20;99.90
18729;DHT22;9493;51.884;5.188;2023-07-31T08:40:17;17.20;99.90
18729;DHT22;9493;51.884;5.188;2023-07-31T08:42:45;17.20;99.90
18729;DHT22;9493;51.884;5.188;2023-07-31T08:45:14;17.20;99.90
18729;DHT22;9493;51.884;5.188;2023-07-31T08:47:44;17.20;99.90
18729;DHT22;9493;51.884;5.188;2023-07-31T08:50:15;17.20;99.90
18729;DHT22;9493;51.884;5.188;2023-07-31T08:52:42;17.30;99.90
18729;DHT22;9493;51.884;5.188;2023-07-31T08:55:09;17.20;99.90
18729;DHT22;9493;51.884;5.188;2023-07-31T08:57:37;17.20;99.90
18729;DHT22;9493;51.884;5.188;2023-07-31T09:00:06;17.20;99.90
18729;DHT22;9493;51.884;5.188;2023-07-31T09:02:37;17.30;99.90
18729;DHT22;9493;51.884;5.188;2023-07-31T09:05:06;17.30;99.90
18729;DHT22;9493;51.884;5.188;2023-07-31T09:07:35;17.30;99.90
18729;DHT22;9493;51.884;5.188;2023-07-31T09:10:02;17.30;99.90
18729;DHT22;9493;51.884;5.188;2023-07-31T09:12:29;17.40;99.90
18729;DHT22;9493;51.884;5.188;2023-07-31T09:14:56;17.50;99.90
18729;DHT22;9493;51.884;5.188;2023-07-31T09:17:30;17.50;99.90
18729;DHT22;9493;51.884;5.188;2023-07-31T09:19:57;17.50;99.90
18729;DHT22;9493;51.884;5.188;2023-07-31T09:22:35;17.50;99.90
18729;DHT22;9493;51.884;5.188;2023-07-31T09:25:14;17.50;99.90
18729;DHT22;9493;51.884;5.188;2023-07-31T09:27:46;17.60;99.90
18729;DHT22;9493;51.884;5.188;2023-07-31T09:30:14;17.60;99.90
18729;DHT22;9493;51.884;5.188;2023-07-31T09:32:41;17.60;99.90
18729;DHT22;9493;51.884;5.188;2023-07-31T09:35:19;17.60;99.90
18729;DHT22;9493;51.884;5.188;2023-07-31T09:37:53;17.70;99.90
18729;DHT22;9493;51.884;5.188;2023-07-31T09:40:27;17.70;99.90
18729;DHT22;9493;51.884;5.188;2023-07-31T09:42:56;17.70;99.90
18729;DHT22;9493;51.884;5.188;2023-07-31T09:45:24;17.80;99.90
18729;DHT22;9493;51.884;5.188;2023-07-31T09:47:51;17.90;99.90
18729;DHT22;9493;51.884;5.188;2023-07-31T09:50:20;17.90;99.90
18729;DHT22;9493;51.884;5.188;2023-07-31T09:52:47;18.00;99.90
18729;DHT22;9493;51.884;5.188;2023-07-31T09:55:16;18.10;99.90
18729;DHT22;9493;51.884;5.188;2023-07-31T09:57:45;18.20;99.90
18729;DHT22;9493;51.884;5.188;2023-07-31T10:00:14;18.30;99.90
18729;DHT22;9493;51.884;5.188;2023-07-31T10:02:42;18.30;99.90
18729;DHT22;9493;51.884;5.188;2023-07-31T10:05:12;18.40;99.90
18729;DHT22;9493;51.884;5.188;2023-07-31T10:07:42;18.40;99.90
18729;DHT22;9493;51.884;5.188;2023-07-31T10:10:10;18.40;99.90
18729;DHT22;9493;51.884;5.188;2023-07-31T10:12:38;18.40;99.90
18729;DHT22;9493;51.884;5.188;2023-07-31T10:15:06;18.40;99.90
18729;DHT22;9493;51.884;5.188;2023-07-31T10:17:35;18.50;99.90
18729;DHT22;9493;51.884;5.188;2023-07-31T10:20:02;18.50;99.90
18729;DHT22;9493;51.884;5.188;2023-07-31T10:22:31;18.70;99.90
18729;DHT22;9493;51.884;5.188;2023-07-31T10:24:59;18.80;99.90
18729;DHT22;9493;51.884;5.188;2023-07-31T10:27:26;18.90;99.90
18729;DHT22;9493;51.884;5.188;2023-07-31T10:29:56;18.90;99.90
18729;DHT22;9493;51.884;5.188;2023-07-31T10:32:25;18.70;99.90
18729;DHT22;9493;51.884;5.188;2023-07-31T10:34:53;18.70;99.90
18729;DHT22;9493;51.884;5.188;2023-07-31T10:37:25;18.70;99.90
18729;DHT22;9493;51.884;5.188;2023-07-31T10:39:57;18.60;99.90
18729;DHT22;9493;51.884;5.188;2023-07-31T10:42:29;18.50;99.90
18729;DHT22;9493;51.884;5.188;2023-07-31T10:44:59;18.50;99.90
18729;DHT22;9493;51.884;5.188;2023-07-31T10:47:26;18.40;99.90
18729;DHT22;9493;51.884;5.188;2023-07-31T10:49:55;18.30;99.90
18729;DHT22;9493;51.884;5.188;2023-07-31T10:52:37;18.40;99.90
18729;DHT22;9493;51.884;5.188;2023-07-31T10:55:27;18.40;99.90
18729;DHT22;9493;51.884;5.188;2023-07-31T10:57:55;18.50;99.90
18729;DHT22;9493;51.884;5.188;2023-07-31T11:00:25;18.50;99.90
18729;DHT22;9493;51.884;5.188;2023-07-31T11:03:04;18.50;99.90
18729;DHT22;9493;51.884;5.188;2023-07-31T11:05:46;18.60;99.90
18729;DHT22;9493;51.884;5.188;2023-07-31T11:08:14;18.60;99.90
18729;DHT22;9493;51.884;5.188;2023-07-31T11:10:42;18.60;99.90
18729;DHT22;9493;51.884;5.188;2023-07-31T11:13:09;18.60;99.90
18729;DHT22;9493;51.884;5.188;2023-07-31T11:15:37;18.80;99.90
18729;DHT22;9493;51.884;5.188;2023-07-31T11:18:04;19.00;99.90
18729;DHT22;9493;51.884;5.188;2023-07-31T11:20:34;19.00;99.90
18729;DHT22;9493;51.884;5.188;2023-07-31T11:23:02;19.00;99.90
18729;DHT22;9493;51.884;5.188;2023-07-31T11:25:29;18.90;99.90
18729;DHT22;9493;51.884;5.188;2023-07-31T11:27:57;19.00;99.90
18729;DHT22;9493;51.884;5.188;2023-07-31T11:30:24;19.00;99.90
18729;DHT22;9493;51.884;5.188;2023-07-31T11:32:52;19.00;99.90
18729;DHT22;9493;51.884;5.188;2023-07-31T11:35:19;18.90;99.90
18729;DHT22;9493;51.884;5.188;2023-07-31T11:37:46;19.00;99.90
18729;DHT22;9493;51.884;5.188;2023-07-31T11:40:14;18.90;99.90
18729;DHT22;9493;51.884;5.188;2023-07-31T11:42:41;19.10;99.90
18729;DHT22;9493;51.884;5.188;2023-07-31T11:45:09;19.00;99.90
18729;DHT22;9493;51.884;5.188;2023-07-31T11:47:36;19.00;99.90
18729;DHT22;9493;51.884;5.188;2023-07-31T11:50:07;18.90;99.90
18729;DHT22;9493;51.884;5.188;2023-07-31T11:52:39;18.90;99.90
18729;DHT22;9493;51.884;5.188;2023-07-31T11:55:07;18.80;99.90
18729;DHT22;9493;51.884;5.188;2023-07-31T11:57:36;18.80;99.90
18729;DHT22;9493;51.884;5.188;2023-07-31T12:00:04;18.80;99.90
18729;DHT22;9493;51.884;5.188;2023-07-31T12:02:31;18.70;99.90
18729;DHT22;9493;51.884;5.188;2023-07-31T12:04:58;18.70;99.90
18729;DHT22;9493;51.884;5.188;2023-07-31T12:07:26;18.80;99.90
18729;DHT22;9493;51.884;5.188;2023-07-31T12:09:53;18.70;99.90
18729;DHT22;9493;51.884;5.188;2023-07-31T12:12:21;18.70;99.90
18729;DHT22;9493;51.884;5.188;2023-07-31T12:14:48;18.70;99.90
18729;DHT22;9493;51.884;5.188;2023-07-31T12:17:17;18.70;99.90
18729;DHT22;9493;51.884;5.188;2023-07-31T12:19:45;18.70;99.90
18729;DHT22;9493;51.884;5.188;2023-07-31T12:22:13;18.80;99.90
18729;DHT22;9493;51.884;5.188;2023-07-31T12:24:42;18.90;99.90
18729;DHT22;9493;51.884;5.188;2023-07-31T12:27:11;19.10;99.90
18729;DHT22;9493;51.884;5.188;2023-07-31T12:29:38;19.30;99.90
18729;DHT22;9493;51.884;5.188;2023-07-31T12:32:19;19.50;99.90
18729;DHT22;9493;51.884;5.188;2023-07-31T12:34:46;19.40;99.90
18729;DHT22;9493;51.884;5.188;2023-07-31T12:37:13;19.50;99.90
18729;DHT22;9493;51.884;5.188;2023-07-31T12:39:41;19.40;99.90
18729;DHT22;9493;51.884;5.188;2023-07-31T12:42:08;19.50;99.90
18729;DHT22;9493;51.884;5.188;2023-07-31T12:44:35;19.50;99.90
18729;DHT22;9493;51.884;5.188;2023-07-31T12:47:02;19.50;99.90
18729;DHT22;9493;51.884;5.188;2023-07-31T12:49:29;19.50;99.90
18729;DHT22;9493;51.884;5.188;2023-07-31T12:51:56;19.50;99.90
18729;DHT22;9493;51.884;5.188;2023-07-31T12:54:23;19.50;99.90
18729;DHT22;9493;51.884;5.188;2023-07-31T12:56:51;19.30;99.90
18729;DHT22;9493;51.884;5.188;2023-07-31T12:59:18;19.10;99.90
18729;DHT22;9493;51.884;5.188;2023-07-31T13:01:45;18.90;99.90
18729;DHT22;9493;51.884;5.188;2023-07-31T13:04:11;18.80;99.90
18729;DHT22;9493;51.884;5.188;2023-07-31T13:06:39;18.70;99.90
18729;DHT22;9493;51.884;5.188;2023-07-31T13:09:06;18.80;99.90
18729;DHT22;9493;51.884;5.188;2023-07-31T13:11:33;18.70;99.90
18729;DHT22;9493;51.884;5.188;2023-07-31T13:14:01;18.70;99.90
18729;DHT22;9493;51.884;5.188;2023-07-31T13:16:28;18.70;99.90
18729;DHT22;9493;51.884;5.188;2023-07-31T13:18:55;18.70;99.90
18729;DHT22;9493;51.884;5.188;2023-07-31T13:21:22;18.60;99.90
18729;DHT22;9493;51.884;5.188;2023-07-31T13:23:48;18.60;99.90
18729;DHT22;9493;51.884;5.188;2023-07-31T13:26:15;18.70;99.90
18729;DHT22;9493;51.884;5.188;2023-07-31T13:28:42;18.80;99.90
18729;DHT22;9493;51.884;5.188;2023-07-31T13:31:10;18.70;99.90
18729;DHT22;9493;51.884;5.188;2023-07-31T13:33:37;18.70;99.90
18729;DHT22;9493;51.884;5.188;2023-07-31T13:36:04;18.80;99.90
18729;DHT22;9493;51.884;5.188;2023-07-31T13:38:31;18.80;99.90
18729;DHT22;9493;51.884;5.188;2023-07-31T13:40:58;18.70;99.90
18729;DHT22;9493;51.884;5.188;2023-07-31T13:43:25;18.60;99.90
18729;DHT22;9493;51.884;5.188;2023-07-31T13:45:52;18.60;99.90
18729;DHT22;9493;51.884;5.188;2023-07-31T13:48:20;18.70;99.90
18729;DHT22;9493;51.884;5.188;2023-07-31T13:50:47;18.70;99.90
18729;DHT22;9493;51.884;5.188;2023-07-31T13:53:13;18.70;99.90
18729;DHT22;9493;51.884;5.188;2023-07-31T13:55:40;18.70;99.90
18729;DHT22;9493;51.884;5.188;2023-07-31T13:58:10;18.70;99.90
18729;DHT22;9493;51.884;5.188;2023-07-31T14:00:37;18.70;99.90
18729;DHT22;9493;51.884;5.188;2023-07-31T14:03:04;18.70;99.90
18729;DHT22;9493;51.884;5.188;2023-07-31T14:05:32;18.80;99.90
18729;DHT22;9493;51.884;5.188;2023-07-31T14:07:59;18.80;99.90
18729;DHT22;9493;51.884;5.188;2023-07-31T14:10:26;18.70;99.90
18729;DHT22;9493;51.884;5.188;2023-07-31T14:12:53;18.80;99.90
18729;DHT22;9493;51.884;5.188;2023-07-31T14:15:20;18.70;99.90
18729;DHT22;9493;51.884;5.188;2023-07-31T14:17:46;18.70;99.90
18729;DHT22;9493;51.884;5.188;2023-07-31T14:20:13;18.70;99.90
18729;DHT22;9493;51.884;5.188;2023-07-31T14:22:41;18.80;99.90
18729;DHT22;9493;51.884;5.188;2023-07-31T14:25:08;18.80;99.90
18729;DHT22;9493;51.884;5.188;2023-07-31T14:27:39;18.80;99.90
18729;DHT22;9493;51.884;5.188;2023-07-31T14:30:08;18.70;99.90
18729;DHT22;9493;51.884;5.188;2023-07-31T14:32:35;18.70;99.90
18729;DHT22;9493;51.884;5.188;2023-07-31T14:35:02;18.70;99.90
18729;DHT22;9493;51.884;5.188;2023-07-31T14:37:36;18.70;99.90
18729;DHT22;9493;51.884;5.188;2023-07-31T14:40:06;18.70;99.90
18729;DHT22;9493;51.884;5.188;2023-07-31T14:42:34;18.60;99.90
18729;DHT22;9493;51.884;5.188;2023-07-31T14:45:01;18.60;99.90
18729;DHT22;9493;51.884;5.188;2023-07-31T14:47:28;18.60;99.90
18729;DHT22;9493;51.884;5.188;2023-07-31T14:49:56;18.60;99.90
18729;DHT22;9493;51.884;5.188;2023-07-31T14:52:23;18.70;99.90
18729;DHT22;9493;51.884;5.188;2023-07-31T14:54:50;18.60;99.90
18729;DHT22;9493;51.884;5.188;2023-07-31T14:57:18;18.60;99.90
18729;DHT22;9493;51.884;5.188;2023-07-31T14:59:46;18.60;99.90
18729;DHT22;9493;51.884;5.188;2023-07-31T15:02:13;18.60;99.90
18729;DHT22;9493;51.884;5.188;2023-07-31T15:04:40;18.60;99.90
18729;DHT22;9493;51.884;5.188;2023-07-31T15:07:06;18.60;99.90
18729;DHT22;9493;51.884;5.188;2023-07-31T15:09:33;18.70;99.90
18729;DHT22;9493;51.884;5.188;2023-07-31T15:12:00;18.60;99.90
18729;DHT22;9493;51.884;5.188;2023-07-31T15:14:29;18.50;99.90
18729;DHT22;9493;51.884;5.188;2023-07-31T15:16:56;18.50;99.90
18729;DHT22;9493;51.884;5.188;2023-07-31T15:19:23;18.60;99.90
18729;DHT22;9493;51.884;5.188;2023-07-31T15:21:50;18.60;99.90
18729;DHT22;9493;51.884;5.188;2023-07-31T15:24:17;18.50;99.90
18729;DHT22;9493;51.884;5.188;2023-07-31T15:26:44;18.50;99.90
18729;DHT22;9493;51.884;5.188;2023-07-31T15:29:11;18.60;99.90
18729;DHT22;9493;51.884;5.188;2023-07-31T15:31:45;18.50;99.90
18729;DHT22;9493;51.884;5.188;2023-07-31T15:34:13;18.40;99.90
18729;DHT22;9493;51.884;5.188;2023-07-31T15:36:40;18.40;99.90
18729;DHT22;9493;51.884;5.188;2023-07-31T15:39:07;18.40;99.90
18729;DHT22;9493;51.884;5.188;2023-07-31T15:41:34;18.40;99.90
18729;DHT22;9493;51.884;5.188;2023-07-31T15:44:01;18.40;99.90
18729;DHT22;9493;51.884;5.188;2023-07-31T15:46:28;18.50;99.90
18729;DHT22;9493;51.884;5.188;2023-07-31T15:48:56;18.40;99.90